createdAt,value
2023-01-30T00:01:00.790Z,77.16
2023-01-30T00:03:27.622Z,77.26
2023-01-30T00:05:54.239Z,77.47
2023-01-30T00:08:20.751Z,77.61
2023-01-30T00:10:49.619Z,77.43
2023-01-30T00:13:19.258Z,77.60
2023-01-30T00:15:45.795Z,77.97
2023-01-30T00:18:12.290Z,78.30
2023-01-30T00:20:38.836Z,78.16
2023-01-30T00:23:05.970Z,78.19
2023-01-30T00:25:33.095Z,78.19
2023-01-30T00:28:01.210Z,78.06
2023-01-30T00:30:29.432Z,78.07
2023-01-30T00:32:58.173Z,77.89
2023-01-30T00:35:28.405Z,77.45
2023-01-30T00:37:58.605Z,77.28
2023-01-30T00:40:29.398Z,77.52
2023-01-30T00:43:14.619Z,76.99
2023-01-30T00:46:01.858Z,77.08
2023-01-30T00:48:28.579Z,77.36
2023-01-30T00:50:55.202Z,77.57
2023-01-30T00:53:21.731Z,77.29
2023-01-30T00:55:50.840Z,77.79
2023-01-30T00:58:17.385Z,77.80
2023-01-30T01:00:43.867Z,77.84
2023-01-30T01:03:10.546Z,78.12
2023-01-30T01:05:37.065Z,78.08
2023-01-30T01:08:03.917Z,78.03
2023-01-30T01:10:30.609Z,78.21
2023-01-30T01:12:57.467Z,78.41
2023-01-30T01:15:24.798Z,78.53
2023-01-30T01:17:51.428Z,78.29
2023-01-30T01:22:59.596Z,78.39
2023-01-30T01:25:26.134Z,78.85
2023-01-30T01:27:53.911Z,78.67
2023-01-30T01:30:20.496Z,78.79
2023-01-30T01:32:50.784Z,78.33
2023-01-30T01:35:19.626Z,78.64
2023-01-30T01:37:46.684Z,78.55
2023-01-30T01:40:37.093Z,78.69
2023-01-30T01:43:15.847Z,78.99
2023-01-30T01:45:42.731Z,79.19
2023-01-30T01:48:14.026Z,79.00
2023-01-30T01:50:44.333Z,79.01
2023-01-30T01:53:12.254Z,78.72
2023-01-30T01:55:39.203Z,78.68
2023-01-30T01:58:13.214Z,78.77
2023-01-30T02:00:39.828Z,78.73
2023-01-30T02:03:09.005Z,78.97
2023-01-30T02:05:39.070Z,78.49
2023-01-30T02:08:21.376Z,78.91
2023-01-30T02:11:09.933Z,79.09
2023-01-30T02:13:37.490Z,79.18
2023-01-30T02:16:07.089Z,79.36
2023-01-30T02:18:35.549Z,79.34
2023-01-30T02:21:38.924Z,79.57
2023-01-30T02:24:39.569Z,79.13
2023-01-30T02:27:58.209Z,79.45
2023-01-30T02:30:47.482Z,79.81
2023-01-30T02:33:19.136Z,79.58
2023-01-30T02:35:55.714Z,79.78
2023-01-30T02:38:31.905Z,80.18
2023-01-30T02:41:01.545Z,79.81
2023-01-30T02:43:35.487Z,80.24
2023-01-30T02:46:22.652Z,80.20
2023-01-30T02:48:54.260Z,80.15
2023-01-30T02:51:28.580Z,79.86
2023-01-30T02:53:55.274Z,79.87
2023-01-30T02:56:23.014Z,79.77
2023-01-30T02:58:53.764Z,79.65
2023-01-30T03:01:32.456Z,79.65
2023-01-30T03:04:31.680Z,80.00
2023-01-30T03:07:28.821Z,79.95
2023-01-30T03:10:05.581Z,79.97
2023-01-30T03:12:50.426Z,79.65
2023-01-30T03:15:20.161Z,79.84
2023-01-30T03:17:48.331Z,80.04
2023-01-30T03:20:19.496Z,79.96
2023-01-30T03:22:46.047Z,80.19
2023-01-30T03:25:18.106Z,80.13
2023-01-30T03:27:45.325Z,79.85
2023-01-30T03:30:13.082Z,80.33
2023-01-30T03:32:40.882Z,80.16
2023-01-30T03:35:07.729Z,80.25
2023-01-30T03:37:34.174Z,80.50
2023-01-30T03:40:00.909Z,80.44
2023-01-30T03:42:27.511Z,80.06
2023-01-30T03:44:54.215Z,80.51
2023-01-30T03:47:20.898Z,80.59
2023-01-30T03:49:49.821Z,80.36
2023-01-30T03:52:16.294Z,80.66
2023-01-30T03:54:42.731Z,81.01
2023-01-30T03:57:09.194Z,81.00
2023-01-30T03:59:35.871Z,80.73
2023-01-30T04:02:08.231Z,80.95
2023-01-30T04:04:35.549Z,80.99
2023-01-30T04:07:04.947Z,80.88
2023-01-30T04:09:32.684Z,80.64
2023-01-30T04:11:59.745Z,80.84
2023-01-30T04:14:30.686Z,81.34
2023-01-30T04:17:21.373Z,81.37
2023-01-30T04:20:16.617Z,81.04
2023-01-30T04:22:48.661Z,81.19
2023-01-30T04:25:16.899Z,81.24
2023-01-30T04:27:44.420Z,81.49
2023-01-30T04:30:27.893Z,81.24
2023-01-30T04:33:06.749Z,81.24
2023-01-30T04:35:40.815Z,81.47
2023-01-30T04:38:08.559Z,81.37
2023-01-30T04:40:36.377Z,81.23
2023-01-30T04:43:02.897Z,81.05
2023-01-30T04:45:35.179Z,81.11
2023-01-30T04:48:01.777Z,81.23
2023-01-30T04:50:29.498Z,81.47
2023-01-30T04:52:55.941Z,81.55
2023-01-30T04:55:22.493Z,81.81
2023-01-30T04:57:48.941Z,81.88
2023-01-30T05:00:15.782Z,81.84
2023-01-30T05:02:49.992Z,81.74
2023-01-30T05:05:16.952Z,81.52
2023-01-30T05:07:43.661Z,81.64
2023-01-30T05:10:11.200Z,81.70
2023-01-30T05:12:37.653Z,81.63
2023-01-30T05:15:04.979Z,82.02
2023-01-30T05:17:31.708Z,81.86
2023-01-30T05:19:58.154Z,82.19
2023-01-30T05:22:24.726Z,82.38
2023-01-30T05:24:51.183Z,82.12
2023-01-30T05:27:17.877Z,82.44
2023-01-30T05:29:44.521Z,82.59
2023-01-30T05:32:13.920Z,82.69
2023-01-30T05:34:40.419Z,82.32
2023-01-30T05:37:07.001Z,82.28
2023-01-30T05:39:33.509Z,82.39
2023-01-30T05:41:59.992Z,82.43
2023-01-30T05:44:26.444Z,82.68
2023-01-30T05:46:52.927Z,82.52
2023-01-30T05:49:19.599Z,82.90
2023-01-30T05:51:49.384Z,82.64
2023-01-30T05:54:19.085Z,82.79
2023-01-30T05:56:49.489Z,82.58
2023-01-30T05:59:16.394Z,82.55
2023-01-30T06:01:42.960Z,82.76
2023-01-30T06:04:09.444Z,82.64
2023-01-30T06:06:36.023Z,82.61
2023-01-30T06:09:02.537Z,82.52
2023-01-30T06:11:29.234Z,82.63
2023-01-30T06:13:55.696Z,82.47
2023-01-30T06:16:22.371Z,82.45
2023-01-30T06:18:48.903Z,82.74
2023-01-30T06:21:16.053Z,82.72
2023-01-30T06:23:43.169Z,82.68
2023-01-30T06:26:10.091Z,83.18
2023-01-30T06:28:36.970Z,82.95
2023-01-30T06:31:06.417Z,83.01
2023-01-30T06:33:32.929Z,82.64
2023-01-30T06:35:59.357Z,83.04
2023-01-30T06:38:26.349Z,82.70
2023-01-30T06:40:52.932Z,82.93
2023-01-30T06:43:19.548Z,82.77
2023-01-30T06:45:46.313Z,82.74
2023-01-30T06:48:12.893Z,82.77
2023-01-30T06:50:39.443Z,82.95
2023-01-30T06:53:07.810Z,83.29
2023-01-30T06:55:35.684Z,83.30
2023-01-30T06:58:10.109Z,83.23
2023-01-30T07:00:39.984Z,83.29
2023-01-30T07:03:11.074Z,83.50
2023-01-30T07:05:41.748Z,83.37
2023-01-30T07:08:09.123Z,83.71
2023-01-30T07:10:35.897Z,83.82
2023-01-30T07:13:03.412Z,84.18
2023-01-30T07:15:30.313Z,83.94
2023-01-30T07:17:56.746Z,84.01
2023-01-30T07:20:23.244Z,83.60
2023-01-30T07:22:53.844Z,83.92
2023-01-30T07:25:22.315Z,83.90
2023-01-30T07:27:57.225Z,83.70
2023-01-30T07:30:23.835Z,83.46
2023-01-30T07:32:51.740Z,83.61
2023-01-30T07:35:18.789Z,83.54
2023-01-30T07:37:47.301Z,83.04
2023-01-30T07:40:14.649Z,83.13
2023-01-30T07:42:41.342Z,83.14
2023-01-30T07:45:08.166Z,82.86
2023-01-30T07:47:34.685Z,83.39
2023-01-30T07:50:01.180Z,83.36
2023-01-30T07:52:28.218Z,83.17
2023-01-30T07:54:54.709Z,83.46
2023-01-30T07:57:21.147Z,83.45
2023-01-30T07:59:47.585Z,83.80
2023-01-30T08:02:13.948Z,84.11
2023-01-30T08:04:40.443Z,83.88
2023-01-30T08:07:07.084Z,84.30
2023-01-30T08:09:33.553Z,84.58
2023-01-30T08:12:00.247Z,84.21
2023-01-30T08:14:28.617Z,84.31
2023-01-30T08:16:56.827Z,84.73
2023-01-30T08:19:23.258Z,84.67
2023-01-30T08:21:49.738Z,84.53
2023-01-30T08:24:16.203Z,84.64
2023-01-30T08:26:42.813Z,84.74
2023-01-30T08:29:09.219Z,84.37
2023-01-30T08:31:35.645Z,84.88
2023-01-30T08:34:02.157Z,84.72
2023-01-30T08:36:28.707Z,84.61
2023-01-30T08:38:55.188Z,84.86
2023-01-30T08:41:21.707Z,84.82
2023-01-30T08:43:48.212Z,84.84
2023-01-30T08:46:14.649Z,84.80
2023-01-30T08:48:49.652Z,85.00
2023-01-30T08:51:16.589Z,85.46
2023-01-30T08:53:43.018Z,85.40
2023-01-30T08:56:09.662Z,85.25
2023-01-30T08:58:36.130Z,85.62
2023-01-30T09:01:06.717Z,85.40
2023-01-30T09:03:33.408Z,85.33
2023-01-30T09:05:59.839Z,85.53
2023-01-30T09:08:26.273Z,85.48
2023-01-30T09:10:52.696Z,85.14
2023-01-30T09:13:19.137Z,85.20
2023-01-30T09:15:45.558Z,85.29
2023-01-30T09:18:13.111Z,85.42
2023-01-30T09:20:39.720Z,85.04
2023-01-30T09:23:06.140Z,85.09
2023-01-30T09:25:32.733Z,85.30
2023-01-30T09:27:59.781Z,84.99
2023-01-30T09:30:26.333Z,84.94
2023-01-30T09:32:52.793Z,84.90
2023-01-30T09:35:19.222Z,84.71
2023-01-30T09:37:50.068Z,84.55
2023-01-30T09:40:19.600Z,84.51
2023-01-30T09:43:08.348Z,84.60
2023-01-30T09:46:00.108Z,84.87
2023-01-30T09:48:37.531Z,85.09
2023-01-30T09:51:14.940Z,84.72
2023-01-30T09:54:15.496Z,84.73
2023-01-30T09:56:42.061Z,84.55
2023-01-30T09:59:17.534Z,84.43
2023-01-30T10:02:01.744Z,84.12
2023-01-30T10:04:34.204Z,83.92
2023-01-30T10:07:10.014Z,83.98
2023-01-30T10:10:00.099Z,83.94
2023-01-30T10:12:44.303Z,84.12
2023-01-30T10:15:46.589Z,83.96
2023-01-30T10:18:54.489Z,83.75
2023-01-30T10:21:35.851Z,83.93
2023-01-30T10:24:21.021Z,83.90
2023-01-30T10:26:47.923Z,83.58
2023-01-30T10:29:28.058Z,83.68
2023-01-30T10:31:59.987Z,83.49
2023-01-30T10:34:38.033Z,83.40
2023-01-30T10:37:27.567Z,83.43
2023-01-30T10:40:05.959Z,83.37
2023-01-30T10:42:43.966Z,83.33
2023-01-30T10:45:16.480Z,83.60
2023-01-30T10:48:20.070Z,83.56
2023-01-30T10:51:00.130Z,83.48
2023-01-30T10:53:45.498Z,83.39
2023-01-30T10:56:29.799Z,83.44
2023-01-30T10:59:16.678Z,83.21
2023-01-30T11:01:56.974Z,83.18
2023-01-30T11:04:30.813Z,83.36
2023-01-30T11:06:58.722Z,83.21
2023-01-30T11:09:25.386Z,83.21
2023-01-30T11:11:53.323Z,83.20
2023-01-30T11:14:19.977Z,83.06
2023-01-30T11:16:49.054Z,82.70
2023-01-30T11:19:20.201Z,82.55
2023-01-30T11:21:55.416Z,82.68
2023-01-30T11:24:24.745Z,82.96
2023-01-30T11:26:52.941Z,83.06
2023-01-30T11:29:27.912Z,83.06
2023-01-30T11:31:54.808Z,82.95
2023-01-30T11:34:23.631Z,82.98
2023-01-30T11:36:50.591Z,83.20
2023-01-30T11:39:20.956Z,83.29
2023-01-30T11:41:53.523Z,83.12
2023-01-30T11:44:29.114Z,83.08
2023-01-30T11:46:59.016Z,83.03
2023-01-30T11:49:47.673Z,82.81
2023-01-30T11:52:26.149Z,82.48
2023-01-30T11:54:54.269Z,82.50
2023-01-30T11:57:20.898Z,82.57
2023-01-30T11:59:56.868Z,82.41
2023-01-30T12:02:32.219Z,82.39
2023-01-30T12:05:07.156Z,82.76
2023-01-30T12:07:37.087Z,82.76
2023-01-30T12:10:29.352Z,82.71
2023-01-30T12:13:13.800Z,82.71
2023-01-30T12:15:40.875Z,82.75
2023-01-30T12:18:31.522Z,82.84
2023-01-30T12:21:35.712Z,82.78
2023-01-30T12:24:20.732Z,82.84
2023-01-30T12:26:52.041Z,82.96
2023-01-30T12:29:29.980Z,83.00
2023-01-30T12:32:17.783Z,83.11
2023-01-30T12:34:45.593Z,83.17
2023-01-30T12:37:53.605Z,83.22
2023-01-30T12:40:33.415Z,83.39
2023-01-30T12:43:12.106Z,83.27
2023-01-30T12:46:20.895Z,83.39
2023-01-30T12:48:48.596Z,83.29
2023-01-30T12:51:43.979Z,83.37
2023-01-30T12:54:26.339Z,83.01
2023-01-30T12:57:20.623Z,82.97
2023-01-30T13:00:05.514Z,82.45
2023-01-30T13:02:45.628Z,82.36
2023-01-30T13:05:37.019Z,82.38
2023-01-30T13:08:18.950Z,82.61
2023-01-30T13:11:06.659Z,82.71
2023-01-30T13:13:53.078Z,82.92
2023-01-30T13:16:36.180Z,82.90
2023-01-30T13:19:23.123Z,83.09
2023-01-30T13:21:54.646Z,83.09
2023-01-30T13:24:39.118Z,83.18
2023-01-30T13:27:10.176Z,83.09
2023-01-30T13:29:39.168Z,83.03
2023-01-30T13:32:14.052Z,83.08
2023-01-30T13:34:44.542Z,83.24
2023-01-30T13:37:13.200Z,83.04
2023-01-30T13:39:45.153Z,83.16
2023-01-30T13:42:33.246Z,83.22
2023-01-30T13:45:00.310Z,83.12
2023-01-30T13:47:44.197Z,83.16
2023-01-30T13:50:34.001Z,83.00
2023-01-30T13:53:05.533Z,83.19
2023-01-30T13:55:42.919Z,83.28
2023-01-30T13:58:35.075Z,83.51
2023-01-30T14:01:02.086Z,83.41
2023-01-30T14:03:31.957Z,83.54
2023-01-30T14:06:03.172Z,83.43
2023-01-30T14:08:45.277Z,83.70
2023-01-30T14:11:37.391Z,83.62
2023-01-30T14:14:23.422Z,83.85
2023-01-30T14:16:52.764Z,84.18
2023-01-30T14:19:29.673Z,83.91
2023-01-30T14:22:25.057Z,83.88
2023-01-30T14:25:22.813Z,83.62
2023-01-30T14:27:52.628Z,83.71
2023-01-30T14:30:31.467Z,83.75
2023-01-30T14:33:00.134Z,83.72
2023-01-30T14:35:30.365Z,83.70
2023-01-30T14:38:22.529Z,84.00
2023-01-30T14:40:58.018Z,83.96
2023-01-30T14:43:36.346Z,83.94
2023-01-30T14:46:09.056Z,84.10
2023-01-30T14:48:50.888Z,83.99
2023-01-30T14:51:38.788Z,83.93
2023-01-30T14:54:14.454Z,83.98
2023-01-30T14:56:51.858Z,84.21
2023-01-30T14:59:23.703Z,84.29
2023-01-30T15:01:53.186Z,84.44
2023-01-30T15:04:19.855Z,84.53
2023-01-30T15:06:47.105Z,84.56
2023-01-30T15:09:18.565Z,84.60
2023-01-30T15:11:51.157Z,84.71
2023-01-30T15:14:27.278Z,84.97
2023-01-30T15:17:21.896Z,85.19
2023-01-30T15:20:00.346Z,84.79
2023-01-30T15:22:53.100Z,85.51
2023-01-30T15:25:50.584Z,85.72
2023-01-30T15:28:34.396Z,85.92
2023-01-30T15:31:00.777Z,86.22
2023-01-30T15:33:31.297Z,86.73
2023-01-30T15:35:59.244Z,87.04
2023-01-30T15:38:31.150Z,87.44
2023-01-30T15:41:05.667Z,87.83
2023-01-30T15:43:52.683Z,88.28
2023-01-30T15:46:25.858Z,88.31
2023-01-30T15:49:08.507Z,88.63
2023-01-30T15:51:35.040Z,88.70
2023-01-30T15:54:04.402Z,88.76
2023-01-30T15:56:31.418Z,88.87
2023-01-30T15:59:00.155Z,88.63
2023-01-30T16:01:26.682Z,88.82
2023-01-30T16:03:53.364Z,88.83
2023-01-30T16:06:32.526Z,88.89
2023-01-30T16:09:12.277Z,88.93
2023-01-30T16:11:43.214Z,88.90
2023-01-30T16:14:14.927Z,89.13
2023-01-30T16:16:47.071Z,89.13
2023-01-30T16:19:20.898Z,88.90
2023-01-30T16:21:47.612Z,89.12
2023-01-30T16:24:20.642Z,89.13
2023-01-30T16:26:49.307Z,89.11
2023-01-30T16:29:18.229Z,89.31
2023-01-30T16:31:46.727Z,89.17
2023-01-30T16:34:36.851Z,89.26
2023-01-30T16:37:07.586Z,89.38
2023-01-30T16:39:36.366Z,89.23
2023-01-30T16:42:17.041Z,89.41
2023-01-30T16:44:43.547Z,89.46
2023-01-30T16:47:24.046Z,89.39
2023-01-30T16:49:52.710Z,89.36
2023-01-30T16:52:32.070Z,89.50
2023-01-30T16:54:59.077Z,89.50
2023-01-30T16:57:35.826Z,89.67
2023-01-30T17:00:22.917Z,89.62
2023-01-30T17:03:04.232Z,89.46
2023-01-30T17:05:37.667Z,89.42
2023-01-30T17:08:04.205Z,89.35
2023-01-30T17:10:40.049Z,89.48
2023-01-30T17:13:28.034Z,89.54
2023-01-30T17:15:54.755Z,89.40
2023-01-30T17:18:21.311Z,89.35
2023-01-30T17:20:51.164Z,89.73
2023-01-30T17:23:18.847Z,89.61
2023-01-30T17:25:47.061Z,89.52
2023-01-30T17:28:18.394Z,89.42
2023-01-30T17:30:44.908Z,89.44
2023-01-30T17:33:11.912Z,89.38
2023-01-30T17:35:38.722Z,89.21
2023-01-30T17:38:06.235Z,89.16
2023-01-30T17:40:37.514Z,89.22
2023-01-30T17:43:04.708Z,89.10
2023-01-30T17:45:31.355Z,88.92
2023-01-30T17:47:57.847Z,88.85
2023-01-30T17:50:24.437Z,88.88
2023-01-30T17:52:50.855Z,88.70
2023-01-30T17:55:18.174Z,88.55
2023-01-30T17:57:46.746Z,88.32
2023-01-30T18:00:19.473Z,88.20
2023-01-30T18:02:46.846Z,87.97
2023-01-30T18:05:13.702Z,87.70
2023-01-30T18:07:40.969Z,87.64
2023-01-30T18:10:11.215Z,87.17
2023-01-30T18:12:37.644Z,86.72
2023-01-30T18:15:04.239Z,86.53
2023-01-30T18:17:30.794Z,86.42
2023-01-30T18:19:57.322Z,86.28
2023-01-30T18:22:24.009Z,86.23
2023-01-30T18:24:50.456Z,86.03
2023-01-30T18:27:16.960Z,85.91
2023-01-30T18:29:43.419Z,85.95
2023-01-30T18:32:09.878Z,85.87
2023-01-30T18:34:37.593Z,85.73
2023-01-30T18:37:04.172Z,85.49
2023-01-30T18:39:31.923Z,84.97
2023-01-30T18:41:58.963Z,84.62
2023-01-30T18:44:25.494Z,84.11
2023-01-30T18:46:52.417Z,83.67
2023-01-30T18:49:18.839Z,82.83
2023-01-30T18:51:45.396Z,82.00
2023-01-30T18:54:11.945Z,81.70
2023-01-30T18:56:38.806Z,81.52
2023-01-30T18:59:06.070Z,81.31
2023-01-30T19:01:38.814Z,81.28
2023-01-30T19:04:08.685Z,81.00
2023-01-30T19:06:37.326Z,81.13
2023-01-30T19:09:04.610Z,80.72
2023-01-30T19:11:50.388Z,80.67
2023-01-30T19:14:17.157Z,80.71
2023-01-30T19:16:43.623Z,80.71
2023-01-30T19:19:10.484Z,80.54
2023-01-30T19:21:37.148Z,80.69
2023-01-30T19:24:06.543Z,80.96
2023-01-30T19:26:33.268Z,80.72
2023-01-30T19:28:59.920Z,81.50
2023-01-30T19:31:26.768Z,81.16
2023-01-30T19:33:55.989Z,81.16
2023-01-30T19:36:24.572Z,81.23
2023-01-30T19:38:51.796Z,81.08
2023-01-30T19:41:32.379Z,81.16
2023-01-30T19:44:02.684Z,81.07
2023-01-30T19:46:30.050Z,80.66
2023-01-30T19:48:56.795Z,80.44
2023-01-30T19:51:26.223Z,80.35
2023-01-30T19:53:55.479Z,80.49
2023-01-30T19:56:24.952Z,80.10
2023-01-30T19:58:54.715Z,80.21
2023-01-30T20:01:22.505Z,80.22
2023-01-30T20:03:49.511Z,80.30
2023-01-30T20:06:17.069Z,80.25
2023-01-30T20:08:44.755Z,80.37
2023-01-30T20:11:13.713Z,80.17
2023-01-30T20:13:41.790Z,80.36
2023-01-30T20:16:13.694Z,80.33
2023-01-30T20:18:41.675Z,80.21
2023-01-30T20:21:13.284Z,80.06
2023-01-30T20:23:41.744Z,79.97
2023-01-30T20:26:14.201Z,79.94
2023-01-30T20:28:41.609Z,79.54
2023-01-30T20:31:10.505Z,79.93
2023-01-30T20:33:37.311Z,79.81
2023-01-30T20:36:05.359Z,79.55
2023-01-30T20:38:33.510Z,79.43
2023-01-30T20:41:20.950Z,79.52
2023-01-30T20:43:49.327Z,79.70
2023-01-30T20:46:18.343Z,79.67
2023-01-30T20:48:45.460Z,79.36
2023-01-30T20:51:20.339Z,79.85
2023-01-30T20:53:51.304Z,80.12
2023-01-30T20:56:18.862Z,79.84
2023-01-30T20:58:45.841Z,79.82
2023-01-30T21:01:18.435Z,80.01
2023-01-30T21:03:47.860Z,79.72
2023-01-30T21:06:14.270Z,79.52
2023-01-30T21:09:01.180Z,79.43
2023-01-30T21:11:27.802Z,79.36
2023-01-30T21:13:54.402Z,78.79
2023-01-30T21:16:26.535Z,78.76
2023-01-30T21:18:55.124Z,78.54
2023-01-30T21:21:30.795Z,78.59
2023-01-30T21:24:00.869Z,78.41
2023-01-30T21:26:29.125Z,78.77
2023-01-30T21:28:55.770Z,78.18
2023-01-30T21:31:26.922Z,78.28
2023-01-30T21:33:56.136Z,78.23
2023-01-30T21:36:22.655Z,78.10
2023-01-30T21:39:07.681Z,78.16
2023-01-30T21:41:50.754Z,78.22
2023-01-30T21:44:18.630Z,77.82
2023-01-30T21:46:46.955Z,77.99
2023-01-30T21:49:14.795Z,77.94
2023-01-30T21:51:46.164Z,78.00
2023-01-30T21:54:13.432Z,78.05
2023-01-30T21:56:40.512Z,78.49
2023-01-30T21:59:07.276Z,78.99
2023-01-30T22:01:34.794Z,78.83
2023-01-30T22:04:03.043Z,79.02
2023-01-30T22:06:29.878Z,78.88
2023-01-30T22:08:59.158Z,78.96
2023-01-30T22:11:25.930Z,79.06
2023-01-30T22:13:52.727Z,79.04
2023-01-30T22:16:21.730Z,79.06
2023-01-30T22:18:53.161Z,79.21
2023-01-30T22:21:22.666Z,79.31
2023-01-30T22:23:50.430Z,79.34
2023-01-30T22:26:18.623Z,79.81
2023-01-30T22:28:45.565Z,79.38
2023-01-30T22:31:18.172Z,79.25
2023-01-30T22:33:46.194Z,79.11
2023-01-30T22:36:13.631Z,78.99
2023-01-30T22:38:44.290Z,78.85
2023-01-30T22:41:15.559Z,79.18
2023-01-30T22:43:47.125Z,79.50
2023-01-30T22:46:14.538Z,79.71
2023-01-30T22:48:41.676Z,79.69
2023-01-30T22:51:18.119Z,79.80
2023-01-30T22:53:47.399Z,80.05
2023-01-30T22:56:14.899Z,79.98
2023-01-30T22:58:41.873Z,79.95
2023-01-30T23:01:12.156Z,79.82
2023-01-30T23:03:39.431Z,80.03
2023-01-30T23:06:08.182Z,80.06
2023-01-30T23:08:36.868Z,80.05
2023-01-30T23:11:14.429Z,79.98
2023-01-30T23:13:42.614Z,79.61
2023-01-30T23:16:09.359Z,79.93
2023-01-30T23:18:54.594Z,79.98
2023-01-30T23:21:26.895Z,79.79
2023-01-30T23:23:56.193Z,79.89
2023-01-30T23:26:24.315Z,80.06
2023-01-30T23:28:50.907Z,80.21
2023-01-30T23:31:20.978Z,80.27
2023-01-30T23:33:47.498Z,80.10
2023-01-30T23:36:14.954Z,80.03
2023-01-30T23:38:41.689Z,80.01
2023-01-30T23:41:17.080Z,80.16
2023-01-30T23:43:45.183Z,80.25
2023-01-30T23:46:25.936Z,80.39
2023-01-30T23:48:54.508Z,80.58
2023-01-30T23:51:23.469Z,80.50
2023-01-30T23:53:50.963Z,80.46
2023-01-30T23:56:18.208Z,80.62
2023-01-30T23:58:45.627Z,80.61
